sensor_id;sensor_type;location;lat;lon;timestamp;temperature;humidity
16871;DHT22;8552;48.120;-1.456;2022-09-03T00:00:34;18.20;99.90
16871;DHT22;8552;48.120;-1.456;2022-09-03T00:03:07;18.30;99.90
16871;DHT22;8552;48.120;-1.456;2022-09-03T00:05:37;18.20;99.90
16871;DHT22;8552;48.120;-1.456;2022-09-03T00:13:29;18.10;99.90
16871;DHT22;8552;48.120;-1.456;2022-09-03T00:15:57;18.10;99.90
16871;DHT22;8552;48.120;-1.456;2022-09-03T00:18:27;18.00;99.90
16871;DHT22;8552;48.120;-1.456;2022-09-03T00:21:06;17.90;99.90
16871;DHT22;8552;48.120;-1.456;2022-09-03T00:23:36;17.90;99.90
16871;DHT22;8552;48.120;-1.456;2022-09-03T00:26:26;17.90;99.90
16871;DHT22;8552;48.120;-1.456;2022-09-03T00:29:05;17.90;99.90
16871;DHT22;8552;48.120;-1.456;2022-09-03T00:34:30;17.90;99.90
16871;DHT22;8552;48.120;-1.456;2022-09-03T00:36:57;17.90;99.90
16871;DHT22;8552;48.120;-1.456;2022-09-03T00:39:26;17.80;99.90
16871;DHT22;8552;48.120;-1.456;2022-09-03T00:47:58;17.70;99.90
16871;DHT22;8552;48.120;-1.456;2022-09-03T00:51:01;17.70;99.90
16871;DHT22;8552;48.120;-1.456;2022-09-03T00:56:38;17.60;99.90
16871;DHT22;8552;48.120;-1.456;2022-09-03T00:59:39;17.50;99.90
16871;DHT22;8552;48.120;-1.456;2022-09-03T01:02:30;17.50;99.90
16871;DHT22;8552;48.120;-1.456;2022-09-03T01:05:10;17.50;99.90
16871;DHT22;8552;48.120;-1.456;2022-09-03T01:07:52;17.50;99.90
16871;DHT22;8552;48.120;-1.456;2022-09-03T01:19:03;17.30;99.90
16871;DHT22;8552;48.120;-1.456;2022-09-03T01:22:06;17.30;99.90
16871;DHT22;8552;48.120;-1.456;2022-09-03T01:30:07;17.20;99.90
16871;DHT22;8552;48.120;-1.456;2022-09-03T01:32:48;17.10;99.90
16871;DHT22;8552;48.120;-1.456;2022-09-03T01:46:36;17.10;99.90
16871;DHT22;8552;48.120;-1.456;2022-09-03T01:49:18;17.00;99.90
16871;DHT22;8552;48.120;-1.456;2022-09-03T01:51:59;17.00;99.90
16871;DHT22;8552;48.120;-1.456;2022-09-03T01:57:38;17.20;99.90
16871;DHT22;8552;48.120;-1.456;2022-09-03T02:00:10;17.20;99.90
16871;DHT22;8552;48.120;-1.456;2022-09-03T02:02:39;17.30;99.90
16871;DHT22;8552;48.120;-1.456;2022-09-03T02:05:15;17.30;99.90
16871;DHT22;8552;48.120;-1.456;2022-09-03T02:07:48;17.30;99.90
16871;DHT22;8552;48.120;-1.456;2022-09-03T02:10:26;17.30;99.90
16871;DHT22;8552;48.120;-1.456;2022-09-03T02:13:00;17.30;99.90
16871;DHT22;8552;48.120;-1.456;2022-09-03T02:15:27;17.30;99.90
16871;DHT22;8552;48.120;-1.456;2022-09-03T02:17:57;17.40;99.90
16871;DHT22;8552;48.120;-1.456;2022-09-03T02:20:26;17.40;99.90
16871;DHT22;8552;48.120;-1.456;2022-09-03T02:22:53;17.40;99.90
16871;DHT22;8552;48.120;-1.456;2022-09-03T02:25:20;17.40;99.90
16871;DHT22;8552;48.120;-1.456;2022-09-03T02:27:48;17.40;99.90
16871;DHT22;8552;48.120;-1.456;2022-09-03T02:30:14;17.50;99.90
16871;DHT22;8552;48.120;-1.456;2022-09-03T02:32:40;17.40;99.90
16871;DHT22;8552;48.120;-1.456;2022-09-03T02:35:06;17.50;99.90
16871;DHT22;8552;48.120;-1.456;2022-09-03T02:37:32;17.50;99.90
16871;DHT22;8552;48.120;-1.456;2022-09-03T02:39:57;17.50;99.90
16871;DHT22;8552;48.120;-1.456;2022-09-03T02:42:23;17.50;99.90
16871;DHT22;8552;48.120;-1.456;2022-09-03T02:44:56;17.50;99.90
16871;DHT22;8552;48.120;-1.456;2022-09-03T02:47:24;17.50;99.90
16871;DHT22;8552;48.120;-1.456;2022-09-03T02:49:53;17.50;99.90
16871;DHT22;8552;48.120;-1.456;2022-09-03T02:52:18;17.50;99.90
16871;DHT22;8552;48.120;-1.456;2022-09-03T02:54:44;17.50;99.90
16871;DHT22;8552;48.120;-1.456;2022-09-03T02:57:13;17.50;99.90
16871;DHT22;8552;48.120;-1.456;2022-09-03T02:59:39;17.50;99.90
16871;DHT22;8552;48.120;-1.456;2022-09-03T03:02:06;17.60;99.90
16871;DHT22;8552;48.120;-1.456;2022-09-03T03:04:33;17.60;99.90
16871;DHT22;8552;48.120;-1.456;2022-09-03T03:06:58;17.60;99.90
16871;DHT22;8552;48.120;-1.456;2022-09-03T03:09:24;17.60;99.90
16871;DHT22;8552;48.120;-1.456;2022-09-03T03:11:50;17.60;99.90
16871;DHT22;8552;48.120;-1.456;2022-09-03T03:14:17;17.60;99.90
16871;DHT22;8552;48.120;-1.456;2022-09-03T03:16:43;17.60;99.90
16871;DHT22;8552;48.120;-1.456;2022-09-03T03:19:09;17.50;99.90
16871;DHT22;8552;48.120;-1.456;2022-09-03T03:21:35;17.50;99.90
16871;DHT22;8552;48.120;-1.456;2022-09-03T03:24:01;17.60;99.90
16871;DHT22;8552;48.120;-1.456;2022-09-03T03:26:27;17.60;99.90
16871;DHT22;8552;48.120;-1.456;2022-09-03T03:28:57;17.60;99.90
16871;DHT22;8552;48.120;-1.456;2022-09-03T03:31:24;17.60;99.90
16871;DHT22;8552;48.120;-1.456;2022-09-03T03:34:01;17.50;99.90
16871;DHT22;8552;48.120;-1.456;2022-09-03T03:36:29;17.60;99.90
16871;DHT22;8552;48.120;-1.456;2022-09-03T03:38:56;17.50;99.90
16871;DHT22;8552;48.120;-1.456;2022-09-03T03:41:33;17.50;99.90
16871;DHT22;8552;48.120;-1.456;2022-09-03T03:44:01;17.50;99.90
16871;DHT22;8552;48.120;-1.456;2022-09-03T03:46:35;17.50;99.90
16871;DHT22;8552;48.120;-1.456;2022-09-03T03:49:01;17.50;99.90
16871;DHT22;8552;48.120;-1.456;2022-09-03T03:51:27;17.50;99.90
16871;DHT22;8552;48.120;-1.456;2022-09-03T03:53:55;17.50;99.90
16871;DHT22;8552;48.120;-1.456;2022-09-03T03:56:22;17.50;99.90
16871;DHT22;8552;48.120;-1.456;2022-09-03T03:58:48;17.40;99.90
16871;DHT22;8552;48.120;-1.456;2022-09-03T04:01:16;17.50;99.90
16871;DHT22;8552;48.120;-1.456;2022-09-03T04:03:42;17.50;99.90
16871;DHT22;8552;48.120;-1.456;2022-09-03T04:06:09;17.40;99.90
16871;DHT22;8552;48.120;-1.456;2022-09-03T04:08:37;17.40;99.90
16871;DHT22;8552;48.120;-1.456;2022-09-03T04:11:05;17.40;99.90
16871;DHT22;8552;48.120;-1.456;2022-09-03T04:13:37;17.40;99.90
16871;DHT22;8552;48.120;-1.456;2022-09-03T04:16:06;17.40;99.90
16871;DHT22;8552;48.120;-1.456;2022-09-03T04:18:32;17.40;99.90
16871;DHT22;8552;48.120;-1.456;2022-09-03T04:21:00;17.40;99.90
16871;DHT22;8552;48.120;-1.456;2022-09-03T04:23:29;17.40;99.90
16871;DHT22;8552;48.120;-1.456;2022-09-03T04:25:55;17.40;99.90
16871;DHT22;8552;48.120;-1.456;2022-09-03T04:28:21;17.30;99.90
16871;DHT22;8552;48.120;-1.456;2022-09-03T04:30:47;17.30;99.90
16871;DHT22;8552;48.120;-1.456;2022-09-03T04:33:12;17.30;99.90
16871;DHT22;8552;48.120;-1.456;2022-09-03T04:35:38;17.30;99.90
16871;DHT22;8552;48.120;-1.456;2022-09-03T04:38:06;17.30;99.90
16871;DHT22;8552;48.120;-1.456;2022-09-03T04:40:32;17.30;99.90
16871;DHT22;8552;48.120;-1.456;2022-09-03T04:42:58;17.30;99.90
16871;DHT22;8552;48.120;-1.456;2022-09-03T04:45:25;17.20;99.90
16871;DHT22;8552;48.120;-1.456;2022-09-03T04:47:58;17.20;99.90
16871;DHT22;8552;48.120;-1.456;2022-09-03T04:50:24;17.30;99.90
16871;DHT22;8552;48.120;-1.456;2022-09-03T04:52:51;17.20;99.90
16871;DHT22;8552;48.120;-1.456;2022-09-03T04:55:16;17.20;99.90
16871;DHT22;8552;48.120;-1.456;2022-09-03T04:57:43;17.20;99.90
16871;DHT22;8552;48.120;-1.456;2022-09-03T05:00:10;17.20;99.90
16871;DHT22;8552;48.120;-1.456;2022-09-03T05:02:36;17.20;99.90
16871;DHT22;8552;48.120;-1.456;2022-09-03T05:05:02;17.20;99.90
16871;DHT22;8552;48.120;-1.456;2022-09-03T05:07:29;17.10;99.90
16871;DHT22;8552;48.120;-1.456;2022-09-03T05:10:05;17.10;99.90
16871;DHT22;8552;48.120;-1.456;2022-09-03T05:12:31;17.10;99.90
16871;DHT22;8552;48.120;-1.456;2022-09-03T05:14:57;17.10;99.90
16871;DHT22;8552;48.120;-1.456;2022-09-03T05:17:25;17.10;99.90
16871;DHT22;8552;48.120;-1.456;2022-09-03T05:19:51;17.10;99.90
16871;DHT22;8552;48.120;-1.456;2022-09-03T05:22:17;17.10;99.90
16871;DHT22;8552;48.120;-1.456;2022-09-03T05:24:48;17.00;99.90
16871;DHT22;8552;48.120;-1.456;2022-09-03T05:27:15;17.10;99.90
16871;DHT22;8552;48.120;-1.456;2022-09-03T05:29:44;17.00;99.90
16871;DHT22;8552;48.120;-1.456;2022-09-03T05:32:12;17.00;99.90
16871;DHT22;8552;48.120;-1.456;2022-09-03T05:34:38;17.00;99.90
16871;DHT22;8552;48.120;-1.456;2022-09-03T05:37:04;17.00;99.90
16871;DHT22;8552;48.120;-1.456;2022-09-03T05:39:30;17.00;99.90
16871;DHT22;8552;48.120;-1.456;2022-09-03T05:41:55;17.00;99.90
16871;DHT22;8552;48.120;-1.456;2022-09-03T05:44:21;17.00;99.90
16871;DHT22;8552;48.120;-1.456;2022-09-03T05:46:48;17.00;99.90
16871;DHT22;8552;48.120;-1.456;2022-09-03T05:49:14;17.00;99.90
16871;DHT22;8552;48.120;-1.456;2022-09-03T05:51:40;17.00;99.90
16871;DHT22;8552;48.120;-1.456;2022-09-03T05:54:07;17.10;99.90
16871;DHT22;8552;48.120;-1.456;2022-09-03T05:56:34;17.00;99.90
16871;DHT22;8552;48.120;-1.456;2022-09-03T05:59:03;17.00;99.90
16871;DHT22;8552;48.120;-1.456;2022-09-03T06:01:35;17.00;99.90
16871;DHT22;8552;48.120;-1.456;2022-09-03T06:06:29;17.00;99.90
16871;DHT22;8552;48.120;-1.456;2022-09-03T06:08:58;17.00;99.90
16871;DHT22;8552;48.120;-1.456;2022-09-03T06:11:25;17.00;99.90
16871;DHT22;8552;48.120;-1.456;2022-09-03T06:13:53;17.10;99.90
16871;DHT22;8552;48.120;-1.456;2022-09-03T06:16:19;17.10;99.90
16871;DHT22;8552;48.120;-1.456;2022-09-03T06:18:46;17.10;99.90
16871;DHT22;8552;48.120;-1.456;2022-09-03T06:21:11;17.10;99.90
16871;DHT22;8552;48.120;-1.456;2022-09-03T06:23:39;17.10;99.90
16871;DHT22;8552;48.120;-1.456;2022-09-03T06:26:13;17.10;99.90
16871;DHT22;8552;48.120;-1.456;2022-09-03T06:28:40;17.10;99.90
16871;DHT22;8552;48.120;-1.456;2022-09-03T06:31:09;17.10;99.90
16871;DHT22;8552;48.120;-1.456;2022-09-03T06:33:37;17.20;99.90
16871;DHT22;8552;48.120;-1.456;2022-09-03T06:36:05;17.10;99.90
16871;DHT22;8552;48.120;-1.456;2022-09-03T06:38:33;17.20;99.90
16871;DHT22;8552;48.120;-1.456;2022-09-03T06:41:05;17.20;99.90
16871;DHT22;8552;48.120;-1.456;2022-09-03T06:43:34;17.20;99.90
16871;DHT22;8552;48.120;-1.456;2022-09-03T06:46:02;17.20;99.90
16871;DHT22;8552;48.120;-1.456;2022-09-03T06:48:30;17.20;99.90
16871;DHT22;8552;48.120;-1.456;2022-09-03T06:51:08;17.20;99.90
16871;DHT22;8552;48.120;-1.456;2022-09-03T06:53:36;17.20;99.90
16871;DHT22;8552;48.120;-1.456;2022-09-03T06:56:05;17.20;99.90
16871;DHT22;8552;48.120;-1.456;2022-09-03T06:58:33;17.20;99.90
16871;DHT22;8552;48.120;-1.456;2022-09-03T07:01:02;17.20;99.90
16871;DHT22;8552;48.120;-1.456;2022-09-03T07:03:29;17.30;99.90
16871;DHT22;8552;48.120;-1.456;2022-09-03T07:06:02;17.30;99.90
16871;DHT22;8552;48.120;-1.456;2022-09-03T07:08:29;17.40;99.90
16871;DHT22;8552;48.120;-1.456;2022-09-03T07:11:04;17.30;99.90
16871;DHT22;8552;48.120;-1.456;2022-09-03T07:13:34;17.40;99.90
16871;DHT22;8552;48.120;-1.456;2022-09-03T07:16:27;17.30;99.90
16871;DHT22;8552;48.120;-1.456;2022-09-03T07:18:53;17.40;99.90
16871;DHT22;8552;48.120;-1.456;2022-09-03T07:21:30;17.40;99.90
16871;DHT22;8552;48.120;-1.456;2022-09-03T07:23:56;17.40;99.90
16871;DHT22;8552;48.120;-1.456;2022-09-03T07:26:26;17.50;99.90
16871;DHT22;8552;48.120;-1.456;2022-09-03T07:28:53;17.60;99.90
16871;DHT22;8552;48.120;-1.456;2022-09-03T07:33:57;17.60;99.90
16871;DHT22;8552;48.120;-1.456;2022-09-03T07:36:25;17.60;99.90
16871;DHT22;8552;48.120;-1.456;2022-09-03T07:38:57;17.70;99.90
16871;DHT22;8552;48.120;-1.456;2022-09-03T07:41:24;17.70;99.90
16871;DHT22;8552;48.120;-1.456;2022-09-03T07:43:51;17.80;99.90
16871;DHT22;8552;48.120;-1.456;2022-09-03T07:46:22;17.80;99.90
16871;DHT22;8552;48.120;-1.456;2022-09-03T07:48:52;17.90;99.90
16871;DHT22;8552;48.120;-1.456;2022-09-03T07:51:20;17.90;99.90
16871;DHT22;8552;48.120;-1.456;2022-09-03T07:53:47;18.00;99.90
16871;DHT22;8552;48.120;-1.456;2022-09-03T07:56:13;18.10;99.90
16871;DHT22;8552;48.120;-1.456;2022-09-03T07:58:40;18.20;99.90
16871;DHT22;8552;48.120;-1.456;2022-09-03T08:01:13;18.30;99.90
16871;DHT22;8552;48.120;-1.456;2022-09-03T08:03:47;18.40;99.90
16871;DHT22;8552;48.120;-1.456;2022-09-03T08:06:14;18.50;99.90
16871;DHT22;8552;48.120;-1.456;2022-09-03T08:08:41;18.70;99.90
16871;DHT22;8552;48.120;-1.456;2022-09-03T08:11:14;18.70;99.90
16871;DHT22;8552;48.120;-1.456;2022-09-03T08:13:42;18.80;99.90
16871;DHT22;8552;48.120;-1.456;2022-09-03T08:16:10;18.90;99.90
16871;DHT22;8552;48.120;-1.456;2022-09-03T08:18:36;18.90;99.90
16871;DHT22;8552;48.120;-1.456;2022-09-03T08:21:08;18.90;99.90
16871;DHT22;8552;48.120;-1.456;2022-09-03T08:23:44;19.00;99.90
16871;DHT22;8552;48.120;-1.456;2022-09-03T08:26:10;19.00;99.90
16871;DHT22;8552;48.120;-1.456;2022-09-03T08:28:37;19.00;99.90
16871;DHT22;8552;48.120;-1.456;2022-09-03T08:31:14;19.20;99.90
16871;DHT22;8552;48.120;-1.456;2022-09-03T08:33:45;19.50;99.90
16871;DHT22;8552;48.120;-1.456;2022-09-03T08:36:13;19.60;99.90
16871;DHT22;8552;48.120;-1.456;2022-09-03T08:38:44;19.70;99.90
16871;DHT22;8552;48.120;-1.456;2022-09-03T08:50:20;20.50;99.90
16871;DHT22;8552;48.120;-1.456;2022-09-03T08:52:47;20.60;99.90
16871;DHT22;8552;48.120;-1.456;2022-09-03T08:55:25;20.40;99.90
16871;DHT22;8552;48.120;-1.456;2022-09-03T08:58:10;20.40;99.90
16871;DHT22;8552;48.120;-1.456;2022-09-03T09:11:30;20.80;99.90
16871;DHT22;8552;48.120;-1.456;2022-09-03T09:14:03;20.80;99.90
16871;DHT22;8552;48.120;-1.456;2022-09-03T09:22:56;20.60;99.90
16871;DHT22;8552;48.120;-1.456;2022-09-03T09:25:24;20.70;99.90
16871;DHT22;8552;48.120;-1.456;2022-09-03T09:30:24;20.80;99.90
16871;DHT22;8552;48.120;-1.456;2022-09-03T09:32:50;20.90;99.90
16871;DHT22;8552;48.120;-1.456;2022-09-03T09:35:17;21.20;99.90
16871;DHT22;8552;48.120;-1.456;2022-09-03T09:37:51;21.20;99.90
16871;DHT22;8552;48.120;-1.456;2022-09-03T09:40:28;21.20;99.90
16871;DHT22;8552;48.120;-1.456;2022-09-03T09:43:11;21.10;99.90
16871;DHT22;8552;48.120;-1.456;2022-09-03T09:45:43;21.20;99.90
16871;DHT22;8552;48.120;-1.456;2022-09-03T09:50:43;21.50;99.90
16871;DHT22;8552;48.120;-1.456;2022-09-03T09:53:10;21.40;99.90
16871;DHT22;8552;48.120;-1.456;2022-09-03T09:55:56;21.30;99.90
16871;DHT22;8552;48.120;-1.456;2022-09-03T09:58:26;21.20;99.90
16871;DHT22;8552;48.120;-1.456;2022-09-03T10:01:08;21.20;99.90
16871;DHT22;8552;48.120;-1.456;2022-09-03T10:03:53;21.20;99.90
16871;DHT22;8552;48.120;-1.456;2022-09-03T10:06:22;21.20;99.90
16871;DHT22;8552;48.120;-1.456;2022-09-03T10:09:16;21.10;99.90
16871;DHT22;8552;48.120;-1.456;2022-09-03T10:11:47;21.20;99.90
16871;DHT22;8552;48.120;-1.456;2022-09-03T10:14:29;21.30;99.90
16871;DHT22;8552;48.120;-1.456;2022-09-03T10:17:20;21.50;99.90
16871;DHT22;8552;48.120;-1.456;2022-09-03T10:20:10;21.60;99.90
16871;DHT22;8552;48.120;-1.456;2022-09-03T10:25:25;21.80;99.90
16871;DHT22;8552;48.120;-1.456;2022-09-03T10:27:52;22.00;99.90
16871;DHT22;8552;48.120;-1.456;2022-09-03T10:30:19;22.20;99.90
16871;DHT22;8552;48.120;-1.456;2022-09-03T10:33:47;22.40;99.90
16871;DHT22;8552;48.120;-1.456;2022-09-03T10:36:08;22.40;99.90
16871;DHT22;8552;48.120;-1.456;2022-09-03T10:38:38;22.50;99.90
16871;DHT22;8552;48.120;-1.456;2022-09-03T10:46:34;22.50;99.90
16871;DHT22;8552;48.120;-1.456;2022-09-03T10:49:49;22.50;99.90
16871;DHT22;8552;48.120;-1.456;2022-09-03T10:57:44;22.40;99.90
16871;DHT22;8552;48.120;-1.456;2022-09-03T11:00:12;22.40;99.90
16871;DHT22;8552;48.120;-1.456;2022-09-03T11:06:29;22.70;99.90
16871;DHT22;8552;48.120;-1.456;2022-09-03T11:09:13;23.00;99.90
16871;DHT22;8552;48.120;-1.456;2022-09-03T11:11:56;23.40;99.90
16871;DHT22;8552;48.120;-1.456;2022-09-03T11:14:40;23.50;99.90
16871;DHT22;8552;48.120;-1.456;2022-09-03T11:22:30;23.50;99.90
16871;DHT22;8552;48.120;-1.456;2022-09-03T11:24:58;23.40;99.90
16871;DHT22;8552;48.120;-1.456;2022-09-03T11:30:11;23.40;99.90
16871;DHT22;8552;48.120;-1.456;2022-09-03T11:32:55;23.60;99.90
16871;DHT22;8552;48.120;-1.456;2022-09-03T11:35:38;23.70;99.90
16871;DHT22;8552;48.120;-1.456;2022-09-03T11:38:27;23.80;99.90
16871;DHT22;8552;48.120;-1.456;2022-09-03T11:48:48;24.40;99.90
16871;DHT22;8552;48.120;-1.456;2022-09-03T11:53:58;24.70;99.90
16871;DHT22;8552;48.120;-1.456;2022-09-03T11:56:24;24.70;99.90
16871;DHT22;8552;48.120;-1.456;2022-09-03T11:59:04;24.50;99.90
16871;DHT22;8552;48.120;-1.456;2022-09-03T12:01:33;24.30;99.90
16871;DHT22;8552;48.120;-1.456;2022-09-03T12:04:00;24.00;99.90
16871;DHT22;8552;48.120;-1.456;2022-09-03T12:06:58;24.10;99.90
16871;DHT22;8552;48.120;-1.456;2022-09-03T12:20:37;24.10;99.90
16871;DHT22;8552;48.120;-1.456;2022-09-03T12:23:03;24.30;99.90
16871;DHT22;8552;48.120;-1.456;2022-09-03T12:25:34;24.50;99.90
16871;DHT22;8552;48.120;-1.456;2022-09-03T12:28:01;24.70;99.90
16871;DHT22;8552;48.120;-1.456;2022-09-03T12:30:36;24.80;99.90
16871;DHT22;8552;48.120;-1.456;2022-09-03T12:33:06;25.00;99.90
16871;DHT22;8552;48.120;-1.456;2022-09-03T12:35:32;24.80;99.90
16871;DHT22;8552;48.120;-1.456;2022-09-03T12:37:58;24.60;99.90
16871;DHT22;8552;48.120;-1.456;2022-09-03T12:40:27;24.80;99.90
16871;DHT22;8552;48.120;-1.456;2022-09-03T12:42:55;24.90;99.90
16871;DHT22;8552;48.120;-1.456;2022-09-03T12:45:24;25.20;99.90
16871;DHT22;8552;48.120;-1.456;2022-09-03T12:47:51;25.20;99.90
16871;DHT22;8552;48.120;-1.456;2022-09-03T12:50:23;25.20;99.70
16871;DHT22;8552;48.120;-1.456;2022-09-03T12:52:54;25.20;98.40
16871;DHT22;8552;48.120;-1.456;2022-09-03T12:55:25;25.50;99.90
16871;DHT22;8552;48.120;-1.456;2022-09-03T13:00:25;25.40;98.40
16871;DHT22;8552;48.120;-1.456;2022-09-03T13:03:05;25.60;98.60
16871;DHT22;8552;48.120;-1.456;2022-09-03T13:05:40;25.70;97.30
16871;DHT22;8552;48.120;-1.456;2022-09-03T13:08:08;25.50;99.20
16871;DHT22;8552;48.120;-1.456;2022-09-03T13:10:40;25.50;96.10
16871;DHT22;8552;48.120;-1.456;2022-09-03T13:13:28;25.50;95.30
16871;DHT22;8552;48.120;-1.456;2022-09-03T13:30:28;25.90;93.20
16871;DHT22;8552;48.120;-1.456;2022-09-03T13:33:12;26.00;92.90
16871;DHT22;8552;48.120;-1.456;2022-09-03T13:41:11;26.00;93.00
16871;DHT22;8552;48.120;-1.456;2022-09-03T13:49:05;25.90;91.40
16871;DHT22;8552;48.120;-1.456;2022-09-03T13:51:58;25.80;91.50
16871;DHT22;8552;48.120;-1.456;2022-09-03T13:54:50;25.50;90.80
16871;DHT22;8552;48.120;-1.456;2022-09-03T14:00:04;25.30;91.80
16871;DHT22;8552;48.120;-1.456;2022-09-03T14:05:59;25.30;92.20
16871;DHT22;8552;48.120;-1.456;2022-09-03T14:08:27;25.30;91.20
16871;DHT22;8552;48.120;-1.456;2022-09-03T14:11:02;25.00;90.90
16871;DHT22;8552;48.120;-1.456;2022-09-03T14:16:47;25.10;92.00
16871;DHT22;8552;48.120;-1.456;2022-09-03T14:19:47;25.20;90.80
16871;DHT22;8552;48.120;-1.456;2022-09-03T14:22:41;25.10;91.60
16871;DHT22;8552;48.120;-1.456;2022-09-03T14:25:20;25.10;91.20
16871;DHT22;8552;48.120;-1.456;2022-09-03T14:27:48;25.00;91.70
16871;DHT22;8552;48.120;-1.456;2022-09-03T14:30:26;25.10;90.80
16871;DHT22;8552;48.120;-1.456;2022-09-03T14:41:52;24.90;90.50
16871;DHT22;8552;48.120;-1.456;2022-09-03T14:44:36;25.20;89.10
16871;DHT22;8552;48.120;-1.456;2022-09-03T14:53:10;25.20;89.40
16871;DHT22;8552;48.120;-1.456;2022-09-03T14:56:16;25.00;88.30
16871;DHT22;8552;48.120;-1.456;2022-09-03T15:01:34;25.20;90.00
16871;DHT22;8552;48.120;-1.456;2022-09-03T15:19:08;25.00;85.40
16871;DHT22;8552;48.120;-1.456;2022-09-03T15:21:46;24.90;86.00
16871;DHT22;8552;48.120;-1.456;2022-09-03T15:42:45;24.80;84.60
16871;DHT22;8552;48.120;-1.456;2022-09-03T15:48:07;24.90;86.40
16871;DHT22;8552;48.120;-1.456;2022-09-03T15:50:40;24.80;87.00
16871;DHT22;8552;48.120;-1.456;2022-09-03T15:56:50;24.80;85.30
16871;DHT22;8552;48.120;-1.456;2022-09-03T16:01:47;24.80;84.30
16871;DHT22;8552;48.120;-1.456;2022-09-03T16:04:21;24.70;85.30
16871;DHT22;8552;48.120;-1.456;2022-09-03T16:09:45;24.30;83.70
16871;DHT22;8552;48.120;-1.456;2022-09-03T16:15:18;24.40;87.20
16871;DHT22;8552;48.120;-1.456;2022-09-03T16:18:00;24.40;85.80
16871;DHT22;8552;48.120;-1.456;2022-09-03T16:20:32;24.60;85.00
16871;DHT22;8552;48.120;-1.456;2022-09-03T16:25:33;24.30;87.90
16871;DHT22;8552;48.120;-1.456;2022-09-03T16:28:06;24.20;85.50
16871;DHT22;8552;48.120;-1.456;2022-09-03T16:46:45;23.80;89.70
16871;DHT22;8552;48.120;-1.456;2022-09-03T16:49:41;23.80;89.60
16871;DHT22;8552;48.120;-1.456;2022-09-03T16:52:26;24.00;91.00
16871;DHT22;8552;48.120;-1.456;2022-09-03T16:55:20;23.90;90.20
16871;DHT22;8552;48.120;-1.456;2022-09-03T17:00:21;23.90;90.20
16871;DHT22;8552;48.120;-1.456;2022-09-03T17:11:14;23.60;91.40
16871;DHT22;8552;48.120;-1.456;2022-09-03T17:22:40;23.80;91.40
16871;DHT22;8552;48.120;-1.456;2022-09-03T17:36:22;23.10;93.10
16871;DHT22;8552;48.120;-1.456;2022-09-03T17:44:18;22.50;93.90
16871;DHT22;8552;48.120;-1.456;2022-09-03T17:47:00;22.40;94.30
16871;DHT22;8552;48.120;-1.456;2022-09-03T17:49:33;22.20;94.40
16871;DHT22;8552;48.120;-1.456;2022-09-03T17:54:56;22.00;95.40
16871;DHT22;8552;48.120;-1.456;2022-09-03T17:57:31;21.80;95.80
16871;DHT22;8552;48.120;-1.456;2022-09-03T18:00:11;21.70;96.10
16871;DHT22;8552;48.120;-1.456;2022-09-03T18:02:58;21.60;96.50
16871;DHT22;8552;48.120;-1.456;2022-09-03T18:08:54;21.50;96.80
16871;DHT22;8552;48.120;-1.456;2022-09-03T18:11:13;21.40;97.00
16871;DHT22;8552;48.120;-1.456;2022-09-03T18:16:36;21.10;97.70
16871;DHT22;8552;48.120;-1.456;2022-09-03T18:19:12;21.00;97.90
16871;DHT22;8552;48.120;-1.456;2022-09-03T18:21:46;20.90;98.10
16871;DHT22;8552;48.120;-1.456;2022-09-03T18:24:40;20.80;98.60
16871;DHT22;8552;48.120;-1.456;2022-09-03T18:27:45;20.70;98.40
16871;DHT22;8552;48.120;-1.456;2022-09-03T18:30:32;20.60;98.60
16871;DHT22;8552;48.120;-1.456;2022-09-03T18:33:25;20.50;99.10
16871;DHT22;8552;48.120;-1.456;2022-09-03T18:36:11;20.30;99.40
16871;DHT22;8552;48.120;-1.456;2022-09-03T18:39:26;20.30;99.60
16871;DHT22;8552;48.120;-1.456;2022-09-03T18:48:36;19.80;99.90
16871;DHT22;8552;48.120;-1.456;2022-09-03T18:51:54;19.80;99.90
16871;DHT22;8552;48.120;-1.456;2022-09-03T18:55:11;19.60;99.90
16871;DHT22;8552;48.120;-1.456;2022-09-03T18:58:19;19.50;99.90
16871;DHT22;8552;48.120;-1.456;2022-09-03T19:01:33;19.40;99.90
16871;DHT22;8552;48.120;-1.456;2022-09-03T19:04:58;19.20;99.90
16871;DHT22;8552;48.120;-1.456;2022-09-03T19:13:47;19.00;99.90
16871;DHT22;8552;48.120;-1.456;2022-09-03T19:25:12;18.70;99.90
16871;DHT22;8552;48.120;-1.456;2022-09-03T19:37:44;18.30;99.90
16871;DHT22;8552;48.120;-1.456;2022-09-03T19:44:05;18.20;99.90
16871;DHT22;8552;48.120;-1.456;2022-09-03T19:46:54;18.20;99.90
16871;DHT22;8552;48.120;-1.456;2022-09-03T19:53:05;18.00;99.90
16871;DHT22;8552;48.120;-1.456;2022-09-03T19:55:54;17.90;99.90
16871;DHT22;8552;48.120;-1.456;2022-09-03T19:58:43;17.80;99.90
16871;DHT22;8552;48.120;-1.456;2022-09-03T20:01:33;17.80;99.90
16871;DHT22;8552;48.120;-1.456;2022-09-03T20:04:20;17.70;99.90
16871;DHT22;8552;48.120;-1.456;2022-09-03T20:07:08;17.70;99.90
16871;DHT22;8552;48.120;-1.456;2022-09-03T20:09:55;17.60;99.90
16871;DHT22;8552;48.120;-1.456;2022-09-03T20:12:45;17.50;99.90
16871;DHT22;8552;48.120;-1.456;2022-09-03T20:15:12;17.50;99.90
16871;DHT22;8552;48.120;-1.456;2022-09-03T20:17:42;17.40;99.90
16871;DHT22;8552;48.120;-1.456;2022-09-03T20:20:22;17.40;99.90
16871;DHT22;8552;48.120;-1.456;2022-09-03T20:23:05;17.40;99.90
16871;DHT22;8552;48.120;-1.456;2022-09-03T20:37:20;17.00;99.90
16871;DHT22;8552;48.120;-1.456;2022-09-03T20:48:20;16.90;99.90
16871;DHT22;8552;48.120;-1.456;2022-09-03T20:51:02;16.90;99.90
16871;DHT22;8552;48.120;-1.456;2022-09-03T20:56:32;16.80;99.90
16871;DHT22;8552;48.120;-1.456;2022-09-03T21:01:58;16.60;99.90
16871;DHT22;8552;48.120;-1.456;2022-09-03T21:07:19;16.50;99.90
16871;DHT22;8552;48.120;-1.456;2022-09-03T21:15:15;16.40;99.90
16871;DHT22;8552;48.120;-1.456;2022-09-03T21:21:02;16.30;99.90
16871;DHT22;8552;48.120;-1.456;2022-09-03T21:23:28;16.30;99.90
16871;DHT22;8552;48.120;-1.456;2022-09-03T21:26:11;16.20;99.90
16871;DHT22;8552;48.120;-1.456;2022-09-03T21:28:42;16.20;99.90
16871;DHT22;8552;48.120;-1.456;2022-09-03T21:31:18;16.10;99.90
16871;DHT22;8552;48.120;-1.456;2022-09-03T21:33:47;16.10;99.90
16871;DHT22;8552;48.120;-1.456;2022-09-03T21:36:28;16.10;99.90
16871;DHT22;8552;48.120;-1.456;2022-09-03T21:42:08;16.00;99.90
16871;DHT22;8552;48.120;-1.456;2022-09-03T21:47:13;15.90;99.90
16871;DHT22;8552;48.120;-1.456;2022-09-03T21:50:07;15.90;99.90
16871;DHT22;8552;48.120;-1.456;2022-09-03T21:52:54;15.90;99.90
16871;DHT22;8552;48.120;-1.456;2022-09-03T22:01:05;15.90;99.90
16871;DHT22;8552;48.120;-1.456;2022-09-03T22:03:33;15.80;99.90
16871;DHT22;8552;48.120;-1.456;2022-09-03T22:06:03;15.80;99.90
16871;DHT22;8552;48.120;-1.456;2022-09-03T22:08:47;15.80;99.90
16871;DHT22;8552;48.120;-1.456;2022-09-03T22:11:43;15.80;99.90
16871;DHT22;8552;48.120;-1.456;2022-09-03T22:14:14;15.80;99.90
16871;DHT22;8552;48.120;-1.456;2022-09-03T22:16:57;15.70;99.90
16871;DHT22;8552;48.120;-1.456;2022-09-03T22:19:27;15.70;99.90
16871;DHT22;8552;48.120;-1.456;2022-09-03T22:22:05;15.70;99.90
16871;DHT22;8552;48.120;-1.456;2022-09-03T22:24:44;15.70;99.90
16871;DHT22;8552;48.120;-1.456;2022-09-03T22:30:07;15.60;99.90
16871;DHT22;8552;48.120;-1.456;2022-09-03T22:32:44;15.60;99.90
16871;DHT22;8552;48.120;-1.456;2022-09-03T22:41:07;15.50;99.90
16871;DHT22;8552;48.120;-1.456;2022-09-03T22:47:22;15.50;99.90